createdAt,value
2023-05-05T00:01:51.737Z,89.25
2023-05-05T00:04:22.808Z,89.34
2023-05-05T00:06:52.005Z,89.24
2023-05-05T00:09:20.505Z,89.34
2023-05-05T00:11:48.774Z,89.55
2023-05-05T00:14:17.187Z,89.43
2023-05-05T00:16:45.747Z,89.71
2023-05-05T00:19:15.663Z,89.93
2023-05-05T00:21:44.012Z,90.33
2023-05-05T00:24:12.613Z,90.03
2023-05-05T00:26:41.171Z,90.26
2023-05-05T00:29:09.629Z,90.39
2023-05-05T00:31:38.843Z,90.85
2023-05-05T00:34:07.215Z,91.56
2023-05-05T00:36:37.193Z,91.67
2023-05-05T00:39:05.732Z,91.43
2023-05-05T00:41:35.034Z,91.34
2023-05-05T00:44:04.803Z,91.81
2023-05-05T00:46:35.110Z,91.36
2023-05-05T00:49:03.883Z,91.70
2023-05-05T00:51:32.829Z,91.81
2023-05-05T00:54:03.280Z,91.31
2023-05-05T00:56:32.571Z,92.27
2023-05-05T00:59:01.091Z,91.76
2023-05-05T01:01:30.512Z,92.77
2023-05-05T01:03:59.431Z,93.01
2023-05-05T01:06:43.170Z,93.46
2023-05-05T01:09:25.392Z,93.70
2023-05-05T01:12:07.375Z,93.50
2023-05-05T01:14:41.232Z,93.87
2023-05-05T01:17:18.483Z,94.44
2023-05-05T01:20:11.041Z,95.60
2023-05-05T01:22:43.775Z,94.48
2023-05-05T01:25:37.701Z,95.17
2023-05-05T01:28:20.722Z,94.21
2023-05-05T01:31:07.426Z,94.34
2023-05-05T01:33:45.371Z,93.28
2023-05-05T01:36:31.713Z,93.16
2023-05-05T01:39:03.646Z,93.87
2023-05-05T01:41:44.511Z,93.95
2023-05-05T01:44:16.788Z,94.19
2023-05-05T01:46:49.643Z,94.38
2023-05-05T01:49:19.825Z,94.28
2023-05-05T01:51:49.285Z,93.83
2023-05-05T01:54:19.413Z,93.29
2023-05-05T01:56:50.512Z,93.31
2023-05-05T01:59:21.148Z,93.57
2023-05-05T02:01:52.288Z,93.35
2023-05-05T02:04:23.805Z,93.29
2023-05-05T02:06:54.655Z,93.62
2023-05-05T02:09:25.558Z,93.17
2023-05-05T02:11:58.569Z,93.18
2023-05-05T02:14:30.214Z,93.40
2023-05-05T02:16:59.674Z,94.64
2023-05-05T02:19:33.829Z,94.39
2023-05-05T02:22:02.523Z,94.99
2023-05-05T02:24:31.580Z,94.77
2023-05-05T02:27:04.011Z,94.77
2023-05-05T02:29:37.829Z,95.64
2023-05-05T02:32:11.006Z,95.39
2023-05-05T02:34:43.548Z,95.75
2023-05-05T02:37:24.725Z,95.55
2023-05-05T02:40:03.039Z,95.73
2023-05-05T02:42:37.212Z,96.16
2023-05-05T02:45:13.453Z,96.40
2023-05-05T02:47:44.879Z,97.89
2023-05-05T02:50:15.887Z,97.63
2023-05-05T02:52:57.471Z,97.43
2023-05-05T02:55:27.893Z,97.57
2023-05-05T02:58:04.612Z,98.27
2023-05-05T03:00:44.453Z,97.86
2023-05-05T03:03:20.024Z,97.70
2023-05-05T03:06:01.310Z,98.36
2023-05-05T03:08:36.027Z,98.43
2023-05-05T03:11:07.850Z,98.42
2023-05-05T03:13:44.081Z,98.11
2023-05-05T03:16:19.801Z,98.32
2023-05-05T03:18:51.200Z,98.34
2023-05-05T03:21:35.535Z,99.61
2023-05-05T03:24:14.681Z,98.87
2023-05-05T03:26:46.097Z,98.67
2023-05-05T03:29:15.931Z,98.94
2023-05-05T03:31:47.686Z,98.56
2023-05-05T03:34:17.088Z,99.41
2023-05-05T03:36:50.395Z,98.31
2023-05-05T03:39:19.305Z,98.04
2023-05-05T03:41:48.996Z,98.12
2023-05-05T03:44:19.217Z,98.65
2023-05-05T03:46:48.209Z,98.58
2023-05-05T03:49:21.370Z,98.77
2023-05-05T03:51:52.847Z,98.49
2023-05-05T03:54:21.381Z,99.33
2023-05-05T03:56:51.474Z,99.01
2023-05-05T03:59:20.352Z,99.39
2023-05-05T04:01:50.196Z,99.61
2023-05-05T04:04:19.313Z,98.61
2023-05-05T04:06:47.857Z,98.86
2023-05-05T04:09:18.299Z,98.62
2023-05-05T04:11:47.098Z,97.71
2023-05-05T04:14:15.777Z,97.70
2023-05-05T04:16:44.757Z,97.51
2023-05-05T04:19:14.500Z,96.67
2023-05-05T04:21:43.095Z,97.00
2023-05-05T04:24:11.977Z,96.56
2023-05-05T04:26:42.772Z,96.57
2023-05-05T04:29:11.949Z,97.87
2023-05-05T04:31:41.496Z,97.71
2023-05-05T04:34:10.537Z,97.60
2023-05-05T04:36:40.132Z,97.83
2023-05-05T04:39:09.598Z,97.27
2023-05-05T04:41:38.596Z,97.05
2023-05-05T04:44:09.300Z,97.41
2023-05-05T04:46:38.516Z,97.69
2023-05-05T04:49:07.205Z,97.43
2023-05-05T04:51:36.608Z,96.98
2023-05-05T04:54:05.854Z,96.57
2023-05-05T04:56:34.839Z,96.43
2023-05-05T04:59:04.220Z,95.97
2023-05-05T05:01:36.879Z,95.74
2023-05-05T05:04:07.202Z,95.67
2023-05-05T05:06:36.018Z,95.59
2023-05-05T05:09:05.675Z,94.27
2023-05-05T05:11:34.816Z,93.74
2023-05-05T05:14:03.712Z,93.47
2023-05-05T05:16:32.685Z,92.82
2023-05-05T05:19:03.243Z,91.91
2023-05-05T05:21:36.378Z,90.45
2023-05-05T05:24:06.003Z,90.18
2023-05-05T05:26:34.702Z,89.50
2023-05-05T05:29:04.476Z,89.26
2023-05-05T05:31:34.615Z,88.80
2023-05-05T05:34:05.926Z,87.57
2023-05-05T05:36:35.982Z,86.97
2023-05-05T05:39:05.650Z,86.34
2023-05-05T05:41:34.858Z,85.56
2023-05-05T05:44:03.711Z,83.95
2023-05-05T05:46:33.313Z,83.76
2023-05-05T05:49:02.481Z,83.01
2023-05-05T05:51:33.760Z,82.98
2023-05-05T05:54:03.176Z,81.98
2023-05-05T05:56:32.901Z,81.67
2023-05-05T05:59:02.359Z,81.20
2023-05-05T06:01:31.411Z,81.53
2023-05-05T06:04:01.047Z,82.08
2023-05-05T06:06:30.420Z,81.44
2023-05-05T06:09:00.699Z,80.94
2023-05-05T06:11:31.527Z,80.15
2023-05-05T06:14:00.828Z,80.05
2023-05-05T06:16:29.901Z,79.69
2023-05-05T06:19:00.961Z,79.40
2023-05-05T06:21:30.130Z,79.30
2023-05-05T06:23:58.830Z,78.56
2023-05-05T06:26:30.010Z,78.73
2023-05-05T06:28:59.567Z,78.16
2023-05-05T06:31:28.357Z,77.57
2023-05-05T06:33:57.304Z,76.47
2023-05-05T06:36:26.816Z,75.61
2023-05-05T06:38:59.487Z,74.75
2023-05-05T06:41:30.131Z,75.08
2023-05-05T06:44:01.946Z,74.13
2023-05-05T06:46:31.338Z,73.88
2023-05-05T06:49:00.889Z,73.82
2023-05-05T06:51:29.767Z,73.34
2023-05-05T06:53:58.967Z,73.52
2023-05-05T06:56:29.809Z,74.10
2023-05-05T06:58:59.151Z,74.60
2023-05-05T07:01:28.136Z,72.84
2023-05-05T07:03:57.014Z,72.05
2023-05-05T07:06:26.029Z,71.02
2023-05-05T07:08:55.809Z,70.37
2023-05-05T07:11:24.715Z,70.63
2023-05-05T07:13:55.506Z,70.44
2023-05-05T07:16:27.204Z,70.55
2023-05-05T07:18:56.308Z,70.13
2023-05-05T07:21:25.704Z,69.59
2023-05-05T07:23:54.941Z,69.40
2023-05-05T07:26:23.926Z,68.86
2023-05-05T07:28:53.456Z,67.87
2023-05-05T07:31:24.100Z,66.70
2023-05-05T07:33:53.387Z,66.45
2023-05-05T07:36:22.688Z,66.10
2023-05-05T07:38:51.671Z,64.97
2023-05-05T07:41:21.648Z,63.71
2023-05-05T07:43:52.033Z,62.28
2023-05-05T07:46:21.713Z,61.89
2023-05-05T07:48:52.015Z,60.69
2023-05-05T07:51:21.817Z,60.26
2023-05-05T07:53:50.915Z,58.50
2023-05-05T07:56:21.680Z,59.10
2023-05-05T07:58:51.018Z,57.89
2023-05-05T08:01:20.366Z,57.86
2023-05-05T08:03:51.816Z,56.57
2023-05-05T08:06:23.726Z,55.56
2023-05-05T08:08:54.373Z,54.62
2023-05-05T08:11:23.778Z,53.94
2023-05-05T08:13:52.762Z,52.06
2023-05-05T08:16:21.554Z,50.70
2023-05-05T08:18:50.549Z,52.06
2023-05-05T08:21:21.555Z,51.58
2023-05-05T08:23:50.454Z,51.58
2023-05-05T08:26:19.387Z,51.16
2023-05-05T08:28:48.958Z,49.18
2023-05-05T08:31:19.507Z,49.73
2023-05-05T08:33:48.450Z,48.31
2023-05-05T08:36:17.319Z,46.97
2023-05-05T08:38:48.025Z,46.15
2023-05-05T08:41:19.396Z,44.55
2023-05-05T08:43:59.358Z,44.29
2023-05-05T08:46:31.045Z,43.93
2023-05-05T08:49:00.491Z,39.92
2023-05-05T08:51:38.438Z,44.06
2023-05-05T08:54:14.748Z,41.71
2023-05-05T08:56:46.737Z,42.52
2023-05-05T08:59:17.389Z,42.85
2023-05-05T09:01:47.457Z,41.41
2023-05-05T09:04:19.522Z,40.98
2023-05-05T09:06:48.331Z,37.12
2023-05-05T09:09:19.067Z,41.41
2023-05-05T09:11:48.675Z,40.31
2023-05-05T09:14:17.589Z,39.63
2023-05-05T09:16:46.735Z,38.51
2023-05-05T09:19:18.544Z,38.72
2023-05-05T09:21:49.202Z,34.83
2023-05-05T09:24:19.698Z,38.72
2023-05-05T09:26:50.082Z,37.49
2023-05-05T09:29:23.432Z,35.44
2023-05-05T09:32:06.008Z,33.03
2023-05-05T09:34:36.396Z,36.83
2023-05-05T09:37:06.410Z,37.24
2023-05-05T09:39:37.199Z,37.94
2023-05-05T09:42:06.430Z,36.55
2023-05-05T09:44:36.383Z,35.82
2023-05-05T09:47:14.806Z,35.53
2023-05-05T09:50:00.671Z,33.35
2023-05-05T09:52:30.664Z,35.76
2023-05-05T09:55:01.287Z,35.36
2023-05-05T09:57:31.816Z,35.55
2023-05-05T10:00:02.233Z,34.87
2023-05-05T10:02:36.284Z,34.60
2023-05-05T10:05:10.359Z,33.70
2023-05-05T10:07:41.416Z,35.05
2023-05-05T10:10:13.883Z,34.59
2023-05-05T10:12:43.640Z,34.71
2023-05-05T10:15:14.213Z,34.64
2023-05-05T10:18:02.240Z,32.73
2023-05-05T10:20:37.751Z,33.50
2023-05-05T10:23:09.576Z,33.94
2023-05-05T10:25:48.294Z,31.99
2023-05-05T10:28:25.017Z,32.44
2023-05-05T10:30:58.381Z,33.07
2023-05-05T10:33:36.311Z,31.74
2023-05-05T10:36:07.932Z,31.67
2023-05-05T10:38:39.243Z,31.99
2023-05-05T10:41:11.534Z,30.35
2023-05-05T10:43:40.744Z,31.33
2023-05-05T10:46:10.225Z,31.33
2023-05-05T10:48:44.270Z,29.85
2023-05-05T10:51:35.956Z,28.68
2023-05-05T10:54:15.514Z,31.57
2023-05-05T10:56:45.935Z,31.48
2023-05-05T10:59:43.493Z,29.34
2023-05-05T11:02:23.892Z,32.16
2023-05-05T11:05:18.689Z,30.63
2023-05-05T11:07:49.479Z,33.07
2023-05-05T11:10:20.960Z,32.28
2023-05-05T11:13:23.375Z,31.40
2023-05-05T11:15:54.435Z,34.16
2023-05-05T11:18:36.078Z,32.80
2023-05-05T11:21:18.971Z,34.97
2023-05-05T11:23:52.174Z,36.33
2023-05-05T11:26:51.506Z,34.45
2023-05-05T11:29:22.260Z,36.11
2023-05-05T11:32:15.952Z,35.10
2023-05-05T11:34:52.348Z,36.35
2023-05-05T11:37:24.639Z,35.95
2023-05-05T11:40:18.201Z,36.52
2023-05-05T11:42:47.213Z,36.58
2023-05-05T11:45:25.492Z,34.60
2023-05-05T11:47:55.048Z,36.73
2023-05-05T11:50:27.368Z,36.24
2023-05-05T11:52:56.789Z,37.49
2023-05-05T11:55:25.882Z,36.92
2023-05-05T11:57:54.690Z,36.87
2023-05-05T12:00:35.164Z,36.28
2023-05-05T12:03:07.079Z,37.94
2023-05-05T12:05:37.079Z,37.80
2023-05-05T12:08:10.625Z,38.15
2023-05-05T12:10:39.743Z,38.65
2023-05-05T12:20:01.023Z,38.80
2023-05-05T12:22:29.822Z,38.98
2023-05-05T12:25:00.110Z,39.30
2023-05-05T12:27:29.536Z,40.04
2023-05-05T12:30:11.989Z,39.50
2023-05-05T12:32:41.859Z,39.26
2023-05-05T12:35:13.740Z,40.09
2023-05-05T12:37:44.422Z,40.17
2023-05-05T12:40:49.923Z,38.85
2023-05-05T12:43:30.184Z,39.17
2023-05-05T12:46:08.084Z,38.84
2023-05-05T12:48:41.762Z,38.95
2023-05-05T12:51:20.788Z,37.96
2023-05-05T12:53:51.466Z,38.71
2023-05-05T12:56:34.315Z,38.97
2023-05-05T12:59:04.901Z,38.54
2023-05-05T13:04:52.739Z,38.05
2023-05-05T13:07:24.698Z,38.64
2023-05-05T13:10:07.369Z,39.48
2023-05-05T13:12:37.197Z,39.07
2023-05-05T13:15:07.392Z,39.35
2023-05-05T13:17:36.938Z,39.74
2023-05-05T13:20:07.135Z,39.86
2023-05-05T13:22:37.790Z,40.02
2023-05-05T13:25:07.586Z,40.82
2023-05-05T13:27:38.079Z,40.32
2023-05-05T13:30:08.080Z,40.83
2023-05-05T13:32:37.929Z,41.50
2023-05-05T13:35:07.899Z,41.81
2023-05-05T13:37:39.275Z,41.05
2023-05-05T13:40:10.084Z,41.22
2023-05-05T13:42:39.034Z,41.95
2023-05-05T13:45:08.754Z,42.29
2023-05-05T13:47:37.565Z,42.13
2023-05-05T13:50:07.854Z,42.31
2023-05-05T13:52:38.676Z,42.15
2023-05-05T13:55:08.888Z,42.36
2023-05-05T13:57:38.251Z,42.24
2023-05-05T14:00:09.345Z,42.23
2023-05-05T14:02:38.779Z,42.08
2023-05-05T14:05:10.279Z,42.15
2023-05-05T14:07:41.421Z,42.01
2023-05-05T14:10:11.388Z,41.99
2023-05-05T14:12:40.774Z,41.68
2023-05-05T14:15:13.132Z,41.12
2023-05-05T14:17:42.204Z,40.68
2023-05-05T14:20:12.284Z,40.31
2023-05-05T14:22:42.790Z,40.27
2023-05-05T14:25:11.916Z,40.07
2023-05-05T14:27:41.220Z,39.58
2023-05-05T14:30:11.493Z,41.04
2023-05-05T14:32:40.654Z,40.59
2023-05-05T14:35:10.331Z,40.71
2023-05-05T14:37:39.892Z,40.58
2023-05-05T14:40:11.669Z,40.01
2023-05-05T14:42:40.542Z,40.01
2023-05-05T14:45:11.346Z,38.96
2023-05-05T14:47:40.566Z,39.26
2023-05-05T14:50:11.152Z,38.83
2023-05-05T14:52:40.621Z,38.70
2023-05-05T14:55:11.899Z,39.04
2023-05-05T14:57:43.170Z,39.97
2023-05-05T15:00:13.130Z,39.64
2023-05-05T15:02:42.715Z,40.00
2023-05-05T15:05:12.315Z,40.17
2023-05-05T15:07:41.547Z,40.77
2023-05-05T15:10:12.669Z,40.93
2023-05-05T15:12:42.529Z,41.17
2023-05-05T15:15:12.247Z,41.45
2023-05-05T15:17:42.061Z,42.04
2023-05-05T15:20:11.895Z,42.59
2023-05-05T15:22:41.287Z,42.94
2023-05-05T15:25:12.736Z,43.07
2023-05-05T15:27:42.326Z,43.71
2023-05-05T15:30:14.183Z,44.57
2023-05-05T15:32:43.234Z,44.81
2023-05-05T15:35:12.338Z,45.09
2023-05-05T15:37:42.748Z,45.46
2023-05-05T15:40:14.202Z,45.99
2023-05-05T15:42:43.534Z,46.23
2023-05-05T15:45:15.140Z,46.34
2023-05-05T15:47:44.340Z,46.62
2023-05-05T15:50:14.424Z,47.63
2023-05-05T15:52:43.336Z,47.29
2023-05-05T15:55:13.919Z,47.28
2023-05-05T15:57:42.803Z,47.13
2023-05-05T16:00:12.923Z,47.08
2023-05-05T16:02:41.710Z,47.06
2023-05-05T16:05:11.209Z,46.84
2023-05-05T16:07:40.026Z,47.43
2023-05-05T16:10:10.819Z,47.27
2023-05-05T16:12:41.263Z,47.94
2023-05-05T16:15:11.385Z,48.10
2023-05-05T16:17:40.424Z,48.23
2023-05-05T16:20:10.287Z,49.12
2023-05-05T16:22:38.975Z,49.40
2023-05-05T16:25:09.029Z,49.60
2023-05-05T16:27:37.758Z,50.10
2023-05-05T16:30:10.450Z,50.22
2023-05-05T16:32:39.232Z,50.63
2023-05-05T16:35:09.481Z,50.88
2023-05-05T16:37:40.888Z,51.55
2023-05-05T16:40:11.025Z,52.21
2023-05-05T16:42:40.552Z,51.74
2023-05-05T16:45:12.441Z,51.90
2023-05-05T16:47:41.284Z,52.07
2023-05-05T16:50:10.746Z,52.04
2023-05-05T16:52:39.656Z,51.77
2023-05-05T16:55:09.319Z,52.19
2023-05-05T16:57:38.147Z,52.38
2023-05-05T17:00:08.704Z,52.48
2023-05-05T17:02:39.334Z,52.77
2023-05-05T17:05:08.853Z,53.19
2023-05-05T17:07:37.756Z,53.70
2023-05-05T17:10:07.661Z,53.40
2023-05-05T17:12:36.754Z,53.57
2023-05-05T17:15:08.309Z,53.47
2023-05-05T17:17:39.712Z,54.17
2023-05-05T17:20:10.817Z,53.99
2023-05-05T17:22:40.047Z,54.49
2023-05-05T17:25:09.682Z,54.76
2023-05-05T17:27:39.483Z,54.60
2023-05-05T17:30:09.603Z,55.00
2023-05-05T17:32:39.883Z,55.27
2023-05-05T17:35:10.047Z,55.30
2023-05-05T17:37:40.217Z,55.75
2023-05-05T17:40:10.651Z,55.62
2023-05-05T17:42:39.757Z,56.02
2023-05-05T17:45:10.027Z,56.36
2023-05-05T17:47:42.528Z,56.63
2023-05-05T17:50:12.474Z,56.50
2023-05-05T17:52:44.239Z,56.79
2023-05-05T17:55:13.269Z,56.66
2023-05-05T17:57:41.955Z,57.40
2023-05-05T18:00:11.707Z,57.37
2023-05-05T18:02:44.663Z,57.68
2023-05-05T18:05:13.492Z,57.48
2023-05-05T18:07:42.283Z,57.36
2023-05-05T18:10:11.994Z,57.37
2023-05-05T18:12:41.542Z,57.06
2023-05-05T18:15:11.280Z,57.44
2023-05-05T18:17:44.842Z,57.67
2023-05-05T18:20:18.302Z,57.43
2023-05-05T18:22:48.984Z,57.84
2023-05-05T18:25:19.412Z,58.32
2023-05-05T18:27:54.009Z,58.40
2023-05-05T18:30:29.137Z,58.47
2023-05-05T18:33:02.507Z,58.33
2023-05-05T18:35:40.211Z,58.75
2023-05-05T18:38:15.194Z,58.34
2023-05-05T18:40:49.154Z,58.78
2023-05-05T18:43:24.576Z,58.87
2023-05-05T18:46:00.276Z,59.68
2023-05-05T18:48:34.397Z,59.45
2023-05-05T18:51:09.323Z,59.71
2023-05-05T18:53:43.040Z,59.30
2023-05-05T18:56:17.061Z,59.33
2023-05-05T18:58:51.792Z,59.49
2023-05-05T19:01:26.966Z,59.51
2023-05-05T19:04:00.883Z,60.23
2023-05-05T19:06:35.947Z,60.51
2023-05-05T19:09:07.567Z,60.16
2023-05-05T19:11:42.746Z,60.15
2023-05-05T19:14:27.736Z,61.98
2023-05-05T19:16:59.695Z,61.35
2023-05-05T19:19:30.055Z,64.09
2023-05-05T19:22:03.812Z,61.77
2023-05-05T19:24:35.681Z,61.76
2023-05-05T19:27:05.459Z,64.21
2023-05-05T19:29:36.381Z,62.49
2023-05-05T19:32:06.166Z,63.10
2023-05-05T19:34:34.957Z,62.80
2023-05-05T19:37:05.340Z,62.98
2023-05-05T19:39:34.444Z,63.15
2023-05-05T19:42:04.733Z,63.18
2023-05-05T19:44:34.322Z,63.90
2023-05-05T19:47:03.697Z,63.48
2023-05-05T19:49:32.972Z,64.18
2023-05-05T19:52:02.169Z,64.43
2023-05-05T19:54:32.579Z,64.92
2023-05-05T19:57:02.130Z,64.95
2023-05-05T19:59:33.179Z,65.22
2023-05-05T20:02:05.689Z,65.17
2023-05-05T20:04:34.907Z,66.23
2023-05-05T20:07:05.117Z,65.68
2023-05-05T20:09:36.141Z,66.68
2023-05-05T20:12:05.137Z,66.48
2023-05-05T20:14:33.959Z,66.20
2023-05-05T20:17:03.168Z,66.18
2023-05-05T20:19:33.049Z,66.59
2023-05-05T20:22:02.132Z,66.74
2023-05-05T20:24:31.279Z,67.31
2023-05-05T20:27:02.148Z,67.83
2023-05-05T20:29:32.825Z,67.56
2023-05-05T20:32:02.406Z,68.51
2023-05-05T20:34:31.579Z,68.81
2023-05-05T20:37:01.093Z,68.88
2023-05-05T20:39:30.031Z,69.63
2023-05-05T20:42:00.006Z,69.26
2023-05-05T20:44:29.282Z,69.90
2023-05-05T20:46:58.356Z,69.62
2023-05-05T20:49:27.450Z,71.02
2023-05-05T20:51:56.499Z,70.88
2023-05-05T20:54:26.125Z,72.05
2023-05-05T20:56:58.406Z,71.40
2023-05-05T20:59:29.302Z,72.73
2023-05-05T21:01:58.746Z,72.90
2023-05-05T21:04:28.057Z,73.48
2023-05-05T21:06:57.667Z,73.05
2023-05-05T21:09:26.940Z,72.94
2023-05-05T21:11:55.564Z,73.91
2023-05-05T21:14:27.406Z,73.75
2023-05-05T21:16:57.434Z,78.22
2023-05-05T21:19:26.497Z,74.15
2023-05-05T21:21:59.290Z,73.98
2023-05-05T21:24:28.313Z,74.65
2023-05-05T21:26:57.533Z,75.54
2023-05-05T21:29:27.487Z,75.63
2023-05-05T21:31:59.632Z,76.54
2023-05-05T21:34:30.451Z,76.67
2023-05-05T21:36:59.403Z,76.97
2023-05-05T21:39:28.403Z,76.85
2023-05-05T21:41:57.037Z,77.08
2023-05-05T21:44:26.954Z,76.87
2023-05-05T21:46:57.831Z,76.50
2023-05-05T21:49:26.593Z,76.69
2023-05-05T21:51:55.583Z,76.62
2023-05-05T21:54:26.828Z,77.59
2023-05-05T21:56:57.000Z,78.22
2023-05-05T21:59:26.014Z,78.38
2023-05-05T22:01:56.163Z,78.66
2023-05-05T22:04:26.544Z,79.15
2023-05-05T22:06:57.806Z,78.43
2023-05-05T22:09:26.889Z,78.85
2023-05-05T22:11:56.933Z,78.75
2023-05-05T22:14:26.481Z,79.14
2023-05-05T22:16:55.384Z,78.69
2023-05-05T22:19:26.002Z,79.82
2023-05-05T22:21:54.967Z,79.02
2023-05-05T22:24:24.539Z,79.21
2023-05-05T22:26:54.329Z,80.05
2023-05-05T22:29:24.905Z,80.51
2023-05-05T22:31:54.704Z,79.84
2023-05-05T22:34:24.069Z,80.02
2023-05-05T22:36:54.426Z,79.99
2023-05-05T22:39:24.033Z,79.89
2023-05-05T22:41:53.737Z,80.13
2023-05-05T22:44:25.294Z,80.88
2023-05-05T22:46:54.285Z,80.53
2023-05-05T22:49:25.100Z,80.92
2023-05-05T22:51:55.753Z,80.90
2023-05-05T22:54:24.985Z,81.02
2023-05-05T22:56:54.322Z,81.07
2023-05-05T22:59:23.223Z,81.07
2023-05-05T23:01:52.497Z,81.48
2023-05-05T23:04:21.497Z,82.09
2023-05-05T23:06:50.310Z,81.23
2023-05-05T23:09:21.630Z,82.07
2023-05-05T23:11:50.900Z,82.74
2023-05-05T23:14:19.855Z,81.67
2023-05-05T23:16:50.029Z,82.15
2023-05-05T23:19:19.433Z,82.57
2023-05-05T23:21:53.186Z,82.41
2023-05-05T23:24:24.043Z,82.81
2023-05-05T23:26:56.818Z,82.32
2023-05-05T23:29:26.047Z,82.44
2023-05-05T23:31:55.841Z,81.51
2023-05-05T23:34:25.252Z,81.78
2023-05-05T23:36:54.542Z,81.70
2023-05-05T23:39:25.033Z,81.14
2023-05-05T23:41:54.128Z,80.88
2023-05-05T23:44:22.827Z,81.44
2023-05-05T23:46:51.809Z,81.56
2023-05-05T23:49:20.933Z,80.59
2023-05-05T23:51:50.339Z,80.66
2023-05-05T23:54:20.895Z,81.05
2023-05-05T23:56:51.164Z,81.52
2023-05-05T23:59:20.272Z,81.05
